createdAt,value
2023-01-04T00:01:23.661Z,32.90
2023-01-04T00:03:51.256Z,31.43
2023-01-04T00:06:19.781Z,34.60
2023-01-04T00:08:46.881Z,32.17
2023-01-04T00:11:20.527Z,33.10
2023-01-04T00:13:56.067Z,34.50
2023-01-04T00:16:26.467Z,32.20
2023-01-04T00:18:55.753Z,31.20
2023-01-04T00:21:33.969Z,32.10
2023-01-04T00:24:01.842Z,36.03
2023-01-04T00:26:32.613Z,34.87
2023-01-04T00:29:03.679Z,32.47
2023-01-04T00:31:30.988Z,36.07
2023-01-04T00:34:02.495Z,38.73
2023-01-04T00:36:30.464Z,37.40
2023-01-04T00:39:10.441Z,38.80
2023-01-04T00:41:59.415Z,43.37
2023-01-04T00:44:27.227Z,41.00
2023-01-04T00:46:54.276Z,41.17
2023-01-04T00:49:21.536Z,40.67
2023-01-04T00:51:48.501Z,43.80
2023-01-04T00:54:16.574Z,40.77
2023-01-04T00:56:44.960Z,40.37
2023-01-04T00:59:18.931Z,45.10
2023-01-04T01:01:46.878Z,44.10
2023-01-04T01:04:18.917Z,41.53
2023-01-04T01:06:46.443Z,43.27
2023-01-04T01:09:14.456Z,39.40
2023-01-04T01:11:42.621Z,45.37
2023-01-04T01:14:19.296Z,37.97
2023-01-04T01:16:57.093Z,36.50
2023-01-04T01:19:29.950Z,37.87
2023-01-04T01:21:58.235Z,35.83
2023-01-04T01:24:25.928Z,33.17
2023-01-04T01:26:52.953Z,35.57
2023-01-04T01:29:20.020Z,33.70
2023-01-04T01:31:47.121Z,33.63
2023-01-04T01:34:14.197Z,34.30
2023-01-04T01:36:41.253Z,34.87
2023-01-04T01:39:08.476Z,38.13
2023-01-04T01:41:36.795Z,36.80
2023-01-04T01:44:41.802Z,39.87
2023-01-04T01:47:43.629Z,34.67
2023-01-04T01:50:22.947Z,35.50
2023-01-04T01:52:51.239Z,39.13
2023-01-04T01:55:18.570Z,38.10
2023-01-04T01:57:49.839Z,38.30
2023-01-04T02:00:17.666Z,36.53
2023-01-04T02:03:12.723Z,37.40
2023-01-04T02:05:40.046Z,34.93
2023-01-04T02:08:07.935Z,36.93
2023-01-04T02:10:35.012Z,36.07
2023-01-04T02:13:09.707Z,37.33
2023-01-04T02:16:31.959Z,38.13
2023-01-04T02:19:47.167Z,34.75
2023-01-04T02:22:55.894Z,39.27
2023-01-04T02:25:55.097Z,37.50
2023-01-04T02:29:05.436Z,37.97
2023-01-04T02:31:41.545Z,38.67
2023-01-04T02:34:20.440Z,37.43
2023-01-04T02:37:23.944Z,40.57
2023-01-04T02:40:28.358Z,39.13
2023-01-04T02:43:49.799Z,36.97
2023-01-04T02:46:35.829Z,34.70
2023-01-04T02:49:22.046Z,36.90
2023-01-04T02:51:49.214Z,38.80
2023-01-04T02:54:25.403Z,35.97
2023-01-04T02:57:54.020Z,34.17
2023-01-04T03:01:15.276Z,37.97
2023-01-04T03:04:46.278Z,39.83
2023-01-04T03:07:31.887Z,40.17
2023-01-04T03:10:26.757Z,45.77
2023-01-04T03:13:29.160Z,40.90
2023-01-04T03:16:06.971Z,43.10
2023-01-04T03:18:40.442Z,42.30
2023-01-04T03:21:10.651Z,43.70
2023-01-04T03:23:58.823Z,43.90
2023-01-04T03:26:52.839Z,42.70
2023-01-04T03:30:01.371Z,41.77
2023-01-04T03:32:58.191Z,39.90
2023-01-04T03:35:38.038Z,41.17
2023-01-04T03:38:39.288Z,40.67
2023-01-04T03:41:43.383Z,38.57
2023-01-04T03:44:41.437Z,40.67
2023-01-04T03:47:37.692Z,40.00
2023-01-04T03:50:24.679Z,40.17
2023-01-04T03:52:54.176Z,39.77
2023-01-04T03:55:22.906Z,42.30
2023-01-04T03:57:50.404Z,42.20
2023-01-04T04:00:19.618Z,42.37
2023-01-04T04:02:48.948Z,42.17
2023-01-04T04:05:43.888Z,39.77
2023-01-04T04:08:29.596Z,43.73
2023-01-04T04:11:19.828Z,45.47
2023-01-04T04:13:51.031Z,42.70
2023-01-04T04:16:18.580Z,45.50
2023-01-04T04:18:45.760Z,42.20
2023-01-04T04:21:12.693Z,43.80
2023-01-04T04:23:39.696Z,43.57
2023-01-04T04:26:07.150Z,41.43
2023-01-04T04:28:34.305Z,43.90
2023-01-04T04:31:01.353Z,47.30
2023-01-04T04:33:28.645Z,42.73
2023-01-04T04:35:56.340Z,47.87
2023-01-04T04:38:23.423Z,45.07
2023-01-04T04:41:08.794Z,46.27
2023-01-04T04:43:36.366Z,43.47
2023-01-04T04:46:04.114Z,41.90
2023-01-04T04:48:31.301Z,45.07
2023-01-04T04:50:58.324Z,43.80
2023-01-04T04:53:25.645Z,43.37
2023-01-04T04:55:55.588Z,44.43
2023-01-04T04:58:22.650Z,41.87
2023-01-04T05:00:49.654Z,42.40
2023-01-04T05:03:16.716Z,43.17
2023-01-04T05:05:43.732Z,42.97
2023-01-04T05:08:10.698Z,45.50
2023-01-04T05:10:38.934Z,45.20
2023-01-04T05:13:10.778Z,39.83
2023-01-04T05:15:42.237Z,39.63
2023-01-04T05:18:12.045Z,39.67
2023-01-04T05:20:39.740Z,43.40
2023-01-04T05:23:08.463Z,41.00
2023-01-04T05:25:35.464Z,42.10
2023-01-04T05:28:02.651Z,41.93
2023-01-04T05:30:48.184Z,38.60
2023-01-04T05:33:15.211Z,33.77
2023-01-04T05:35:42.114Z,35.20
2023-01-04T05:38:09.104Z,29.93
2023-01-04T05:40:36.279Z,25.30
2023-01-04T05:43:03.252Z,25.53
2023-01-04T05:45:30.267Z,20.90
2023-01-04T05:47:57.304Z,19.87
2023-01-04T05:50:24.820Z,21.33
2023-01-04T05:52:51.936Z,19.70
2023-01-04T05:55:20.232Z,21.47
2023-01-04T05:57:47.305Z,23.20
2023-01-04T06:00:15.542Z,22.80
2023-01-04T06:02:44.300Z,23.70
2023-01-04T06:05:12.649Z,27.17
2023-01-04T06:07:40.821Z,24.60
2023-01-04T06:10:11.316Z,26.17
2023-01-04T06:12:39.630Z,23.30
2023-01-04T06:15:09.604Z,24.90
2023-01-04T06:17:37.640Z,19.70
2023-01-04T06:20:06.895Z,20.70
2023-01-04T06:22:34.299Z,19.07
2023-01-04T06:25:01.314Z,18.20
2023-01-04T06:27:28.385Z,17.40
2023-01-04T06:29:55.450Z,18.40
2023-01-04T06:32:22.405Z,16.80
2023-01-04T06:34:49.379Z,19.20
2023-01-04T06:37:16.403Z,18.70
2023-01-04T06:39:43.382Z,17.80
2023-01-04T06:42:29.191Z,17.83
2023-01-04T06:44:56.116Z,17.87
2023-01-04T06:47:23.170Z,18.07
2023-01-04T06:49:50.180Z,17.30
2023-01-04T06:52:17.223Z,15.47
2023-01-04T06:54:44.352Z,19.17
2023-01-04T06:57:11.286Z,18.37
2023-01-04T06:59:38.243Z,18.67
2023-01-04T07:02:05.519Z,18.40
2023-01-04T07:04:32.868Z,18.23
2023-01-04T07:06:59.936Z,19.30
2023-01-04T07:09:26.889Z,17.40
2023-01-04T07:11:53.886Z,19.17
2023-01-04T07:14:20.817Z,20.73
2023-01-04T07:16:47.997Z,17.47
2023-01-04T07:19:15.339Z,19.40
2023-01-04T07:21:42.819Z,17.17
2023-01-04T07:24:10.099Z,16.60
2023-01-04T07:26:37.115Z,17.00
2023-01-04T07:29:17.456Z,15.67
2023-01-04T07:31:47.808Z,15.00
2023-01-04T07:34:16.906Z,14.23
2023-01-04T07:36:44.554Z,14.93
2023-01-04T07:39:12.786Z,14.27
2023-01-04T07:41:41.424Z,14.03
2023-01-04T07:44:10.540Z,14.10
2023-01-04T07:46:38.986Z,15.70
2023-01-04T07:49:11.616Z,15.57
2023-01-04T07:51:42.233Z,14.23
2023-01-04T07:54:11.314Z,15.10
2023-01-04T07:56:38.416Z,15.93
2023-01-04T07:59:09.116Z,14.00
2023-01-04T08:01:38.862Z,13.97
2023-01-04T08:04:09.019Z,15.30
2023-01-04T08:06:38.312Z,17.03
2023-01-04T08:09:07.069Z,23.33
2023-01-04T08:11:35.399Z,18.30
2023-01-04T08:14:02.729Z,20.47
2023-01-04T08:16:39.570Z,19.30
2023-01-04T08:19:16.166Z,17.50
2023-01-04T08:21:44.029Z,24.53
2023-01-04T08:24:13.522Z,20.20
2023-01-04T08:26:41.027Z,16.73
2023-01-04T08:29:08.049Z,17.30
2023-01-04T08:31:35.320Z,18.90
2023-01-04T08:34:07.229Z,14.70
2023-01-04T08:36:46.705Z,16.57
2023-01-04T08:39:14.516Z,18.00
2023-01-04T08:41:58.849Z,13.80
2023-01-04T08:44:30.116Z,26.07
2023-01-04T08:46:59.088Z,15.23
2023-01-04T08:49:26.679Z,14.57
2023-01-04T08:51:53.928Z,14.57
2023-01-04T08:54:20.984Z,15.70
2023-01-04T08:56:47.930Z,15.50
2023-01-04T08:59:14.924Z,14.80
2023-01-04T09:01:42.690Z,16.50
2023-01-04T09:04:10.453Z,14.57
2023-01-04T09:06:38.844Z,16.30
2023-01-04T09:09:06.563Z,14.70
2023-01-04T09:11:35.409Z,15.60
2023-01-04T09:14:07.745Z,16.47
2023-01-04T09:16:39.139Z,16.10
2023-01-04T09:19:06.882Z,13.47
2023-01-04T09:21:36.142Z,15.33
2023-01-04T09:24:03.374Z,13.87
2023-01-04T09:26:30.507Z,14.73
2023-01-04T09:28:57.875Z,15.20
2023-01-04T09:31:28.619Z,15.40
2023-01-04T09:34:16.103Z,14.17
2023-01-04T09:36:49.262Z,16.00
2023-01-04T09:39:23.174Z,15.70
2023-01-04T09:41:59.095Z,17.20
2023-01-04T09:45:25.958Z,14.90
2023-01-04T09:48:25.302Z,13.00
2023-01-04T09:51:03.898Z,13.83
2023-01-04T09:53:41.185Z,13.77
2023-01-04T09:56:25.528Z,14.90
2023-01-04T09:58:53.826Z,13.60
2023-01-04T10:01:44.496Z,14.20
2023-01-04T10:04:40.846Z,12.37
2023-01-04T10:07:32.266Z,12.40
2023-01-04T10:10:01.150Z,13.50
2023-01-04T10:13:02.608Z,15.50
2023-01-04T10:15:37.869Z,15.13
2023-01-04T10:21:57.317Z,17.93
2023-01-04T10:24:48.833Z,15.00
2023-01-04T10:27:30.985Z,19.77
2023-01-04T10:30:03.497Z,15.90
2023-01-04T10:32:36.752Z,12.17
2023-01-04T10:35:22.183Z,13.87
2023-01-04T10:37:59.584Z,15.60
2023-01-04T10:40:29.038Z,12.40
2023-01-04T10:43:04.889Z,13.57
2023-01-04T10:45:54.703Z,12.57
2023-01-04T10:48:43.375Z,11.90
2023-01-04T10:51:14.421Z,12.40
2023-01-04T10:53:59.753Z,13.00
2023-01-04T10:56:53.408Z,15.27
2023-01-04T10:59:44.724Z,14.00
2023-01-04T11:02:40.118Z,13.23
2023-01-04T11:05:25.096Z,13.77
2023-01-04T11:08:23.854Z,12.63
2023-01-04T11:10:55.548Z,12.60
2023-01-04T11:13:24.216Z,12.20
2023-01-04T11:15:53.013Z,12.50
2023-01-04T11:18:20.680Z,11.77
2023-01-04T11:20:47.803Z,12.73
2023-01-04T11:23:20.756Z,14.03
2023-01-04T11:25:57.323Z,14.00
2023-01-04T11:28:57.454Z,11.13
2023-01-04T11:31:56.139Z,11.87
2023-01-04T11:34:53.044Z,14.07
2023-01-04T11:37:35.622Z,14.73
2023-01-04T11:40:17.680Z,15.83
2023-01-04T11:42:51.778Z,14.03
2023-01-04T11:45:25.298Z,14.17
2023-01-04T11:47:58.582Z,13.87
2023-01-04T11:50:36.084Z,13.30
2023-01-04T11:53:03.053Z,12.43
2023-01-04T11:55:31.322Z,15.03
2023-01-04T11:58:15.158Z,15.80
2023-01-04T12:00:53.970Z,15.00
2023-01-04T12:03:41.142Z,16.00
2023-01-04T12:06:18.280Z,15.17
2023-01-04T12:08:45.440Z,15.30
2023-01-04T12:11:50.785Z,14.83
2023-01-04T12:14:34.812Z,14.80
2023-01-04T12:17:23.892Z,14.07
2023-01-04T12:19:54.790Z,14.50
2023-01-04T12:22:35.846Z,13.73
2023-01-04T12:25:08.582Z,15.13
2023-01-04T12:27:36.754Z,14.37
2023-01-04T12:30:08.396Z,14.83
2023-01-04T12:32:35.380Z,16.17
2023-01-04T12:35:02.371Z,14.67
2023-01-04T12:37:38.373Z,15.17
2023-01-04T12:40:47.481Z,16.00
2023-01-04T12:43:17.420Z,15.27
2023-01-04T12:46:08.533Z,14.90
2023-01-04T12:48:54.387Z,16.07
2023-01-04T12:51:33.910Z,15.20
2023-01-04T12:54:04.586Z,15.07
2023-01-04T12:57:32.125Z,14.67
2023-01-04T13:00:09.634Z,16.70
2023-01-04T13:02:52.254Z,14.97
2023-01-04T13:08:12.839Z,14.20
2023-01-04T13:10:47.864Z,16.20
2023-01-04T13:13:39.062Z,16.67
2023-01-04T13:16:11.964Z,14.80
2023-01-04T13:19:18.595Z,15.83
2023-01-04T13:21:47.941Z,15.53
2023-01-04T13:24:23.824Z,13.50
2023-01-04T13:26:53.535Z,14.87
2023-01-04T13:29:23.591Z,13.93
2023-01-04T13:32:13.140Z,14.97
2023-01-04T13:35:15.042Z,16.60
2023-01-04T13:37:47.465Z,15.27
2023-01-04T13:40:17.477Z,16.10
2023-01-04T13:43:26.890Z,15.07
2023-01-04T13:46:05.984Z,14.33
2023-01-04T13:48:40.236Z,14.87
2023-01-04T13:51:36.117Z,16.80
2023-01-04T13:54:12.347Z,15.10
2023-01-04T13:56:39.324Z,14.40
2023-01-04T13:59:09.467Z,16.87
2023-01-04T14:01:42.767Z,14.50
2023-01-04T14:04:24.177Z,14.23
2023-01-04T14:06:53.613Z,16.77
2023-01-04T14:09:29.568Z,16.40
2023-01-04T14:12:09.012Z,14.90
2023-01-04T14:14:59.934Z,14.40
2023-01-04T14:17:49.123Z,15.13
2023-01-04T14:20:15.981Z,15.13
2023-01-04T14:22:45.699Z,15.43
2023-01-04T14:25:31.096Z,15.20
2023-01-04T14:28:29.233Z,15.73
2023-01-04T14:31:14.001Z,15.70
2023-01-04T14:33:51.437Z,15.37
2023-01-04T14:36:31.310Z,15.20
2023-01-04T14:39:07.047Z,15.10
2023-01-04T14:41:43.702Z,16.27
2023-01-04T14:44:24.690Z,17.13
2023-01-04T14:46:54.883Z,16.47
2023-01-04T14:49:23.113Z,17.60
2023-01-04T14:51:53.855Z,18.47
2023-01-04T14:54:25.464Z,17.40
2023-01-04T14:56:58.003Z,17.17
2023-01-04T15:03:54.155Z,19.10
2023-01-04T15:06:21.088Z,20.30
2023-01-04T15:08:49.028Z,19.93
2023-01-04T15:11:18.138Z,17.60
2023-01-04T15:13:45.595Z,18.90
2023-01-04T15:16:16.403Z,19.63
2023-01-04T15:18:45.529Z,20.60
2023-01-04T15:21:14.252Z,19.40
2023-01-04T15:23:41.509Z,21.47
2023-01-04T15:26:11.553Z,21.87
2023-01-04T15:28:38.872Z,19.93
2023-01-04T15:31:14.450Z,19.50
2023-01-04T15:33:41.773Z,18.13
2023-01-04T15:36:18.697Z,17.60
2023-01-04T15:38:48.801Z,20.50
2023-01-04T15:41:37.154Z,20.13
2023-01-04T15:44:05.644Z,22.07
2023-01-04T15:46:32.698Z,20.77
2023-01-04T15:48:59.870Z,20.93
2023-01-04T15:51:27.111Z,21.67
2023-01-04T15:53:54.275Z,21.00
2023-01-04T15:56:21.975Z,21.90
2023-01-04T15:58:53.715Z,22.23
2023-01-04T16:01:22.438Z,21.57
2023-01-04T16:03:53.421Z,20.10
2023-01-04T16:06:21.380Z,20.57
2023-01-04T16:08:50.024Z,22.00
2023-01-04T16:11:23.769Z,22.63
2023-01-04T16:13:53.155Z,31.97
2023-01-04T16:16:23.178Z,29.00
2023-01-04T16:18:52.698Z,29.10
2023-01-04T16:21:28.847Z,31.03
2023-01-04T16:24:06.847Z,30.53
2023-01-04T16:26:37.684Z,31.33
2023-01-04T16:29:04.929Z,28.60
2023-01-04T16:31:37.939Z,24.73
2023-01-04T16:34:05.996Z,24.43
2023-01-04T16:36:33.069Z,22.40
2023-01-04T16:39:02.119Z,23.97
2023-01-04T16:41:29.136Z,23.40
2023-01-04T16:44:01.189Z,24.07
2023-01-04T16:46:31.456Z,26.23
2023-01-04T16:49:06.447Z,24.33
2023-01-04T16:51:35.200Z,27.90
2023-01-04T16:54:05.008Z,26.53
2023-01-04T16:56:33.061Z,24.93
2023-01-04T16:59:02.313Z,24.97
2023-01-04T17:01:37.575Z,27.47
2023-01-04T17:04:10.458Z,26.37
2023-01-04T17:06:41.047Z,23.93
2023-01-04T17:09:13.793Z,22.85
2023-01-04T17:14:30.943Z,28.67
2023-01-04T17:16:58.232Z,25.83
2023-01-04T17:19:25.398Z,25.13
2023-01-04T17:21:52.840Z,27.30
2023-01-04T17:24:19.957Z,29.70
2023-01-04T17:26:47.149Z,36.00
2023-01-04T17:29:15.277Z,27.67
2023-01-04T17:31:44.332Z,33.90
2023-01-04T17:34:20.111Z,34.77
2023-01-04T17:36:49.439Z,29.23
2023-01-04T17:39:16.738Z,28.20
2023-01-04T17:41:43.874Z,27.50
2023-01-04T17:44:11.060Z,26.83
2023-01-04T17:46:39.094Z,25.67
2023-01-04T17:49:22.599Z,24.30
2023-01-04T17:51:51.184Z,23.17
2023-01-04T17:54:18.483Z,25.53
2023-01-04T17:56:45.436Z,24.13
2023-01-04T17:59:12.868Z,20.40
2023-01-04T18:01:40.071Z,10.57
2023-01-04T18:04:07.246Z,2.73
2023-01-04T18:06:37.406Z,1.30
2023-01-04T18:09:06.945Z,1.40
2023-01-04T18:11:35.013Z,1.00
2023-01-04T18:14:05.922Z,0.87
2023-01-04T18:16:57.186Z,0.60
2023-01-04T18:19:27.281Z,0.90
2023-01-04T18:21:55.634Z,1.07
2023-01-04T18:24:36.244Z,0.90
2023-01-04T18:27:22.529Z,1.00
2023-01-04T18:29:51.710Z,1.00
2023-01-04T18:32:18.915Z,0.80
2023-01-04T18:34:45.889Z,0.70
2023-01-04T18:37:13.833Z,0.90
2023-01-04T18:39:40.871Z,0.80
2023-01-04T18:42:08.054Z,1.10
2023-01-04T18:44:35.855Z,1.10
2023-01-04T18:47:04.285Z,1.03
2023-01-04T18:49:32.141Z,0.93
2023-01-04T18:51:59.131Z,1.10
2023-01-04T18:54:26.171Z,1.17
2023-01-04T18:57:00.393Z,0.90
2023-01-04T18:59:29.917Z,1.30
2023-01-04T19:02:02.561Z,1.10
2023-01-04T19:04:34.867Z,1.07
2023-01-04T19:07:03.434Z,1.10
2023-01-04T19:09:31.000Z,1.00
2023-01-04T19:11:58.652Z,1.10
2023-01-04T19:14:26.503Z,1.00
2023-01-04T19:16:54.063Z,0.83
2023-01-04T19:19:21.497Z,0.80
2023-01-04T19:21:48.921Z,0.87
2023-01-04T19:24:19.591Z,0.97
2023-01-04T19:26:46.695Z,0.70
2023-01-04T19:29:13.708Z,1.00
2023-01-04T19:31:40.678Z,0.67
2023-01-04T19:34:10.174Z,0.70
2023-01-04T19:36:37.488Z,0.70
2023-01-04T19:39:08.054Z,1.20
2023-01-04T19:41:39.046Z,0.70
2023-01-04T19:44:10.363Z,0.70
2023-01-04T19:46:41.162Z,0.80
2023-01-04T19:49:14.779Z,0.63
2023-01-04T19:51:46.375Z,0.60
2023-01-04T19:54:17.391Z,0.70
2023-01-04T19:56:48.536Z,0.60
2023-01-04T19:59:15.559Z,0.80
2023-01-04T20:01:42.488Z,0.60
2023-01-04T20:04:09.683Z,0.63
2023-01-04T20:06:36.594Z,0.60
2023-01-04T20:09:03.646Z,0.60
2023-01-04T20:11:30.586Z,0.80
2023-01-04T20:13:57.779Z,0.70
2023-01-04T20:16:27.851Z,0.60
2023-01-04T20:18:58.408Z,0.80
2023-01-04T20:21:25.499Z,0.60
2023-01-04T20:23:53.464Z,0.60
2023-01-04T20:26:21.404Z,0.60
2023-01-04T20:28:49.064Z,0.60
2023-01-04T20:31:18.270Z,0.80
2023-01-04T20:33:50.648Z,0.80
2023-01-04T20:36:22.945Z,0.70
2023-01-04T20:38:50.854Z,0.83
2023-01-04T20:41:22.758Z,1.00
2023-01-04T20:43:51.730Z,1.00
2023-01-04T20:46:31.873Z,0.90
2023-01-04T20:49:01.435Z,0.87
2023-01-04T20:51:30.901Z,0.90
2023-01-04T20:54:00.133Z,1.27
2023-01-04T20:56:30.544Z,0.80
2023-01-04T20:58:58.612Z,0.93
2023-01-04T21:01:25.736Z,1.00
2023-01-04T21:03:52.885Z,1.00
2023-01-04T21:06:21.706Z,1.00
2023-01-04T21:08:52.630Z,1.40
2023-01-04T21:11:19.622Z,2.30
2023-01-04T21:13:47.832Z,1.67
2023-01-04T21:16:15.363Z,1.40
2023-01-04T21:18:43.651Z,1.90
2023-01-04T21:21:15.486Z,1.73
2023-01-04T21:23:44.044Z,2.33
2023-01-04T21:26:15.913Z,3.13
2023-01-04T21:28:43.006Z,2.40
2023-01-04T21:31:26.034Z,2.10
2023-01-04T21:33:54.387Z,1.57
2023-01-04T21:36:27.429Z,1.27
2023-01-04T21:38:57.821Z,1.13
2023-01-04T21:41:26.052Z,1.17
2023-01-04T21:43:56.270Z,0.93
2023-01-04T21:46:24.556Z,1.27
2023-01-04T21:48:57.256Z,1.00
2023-01-04T21:51:24.761Z,0.90
2023-01-04T21:53:51.777Z,1.00
2023-01-04T21:56:23.274Z,0.90
2023-01-04T21:58:50.954Z,1.07
2023-01-04T22:01:22.146Z,1.10
2023-01-04T22:03:49.826Z,0.80
2023-01-04T22:06:18.029Z,0.90
2023-01-04T22:08:46.663Z,0.90
2023-01-04T22:11:16.352Z,0.87
2023-01-04T22:13:43.777Z,1.00
2023-01-04T22:16:18.091Z,0.90
2023-01-04T22:18:51.564Z,1.10
2023-01-04T22:21:23.936Z,0.80
2023-01-04T22:23:51.930Z,0.60
2023-01-04T22:26:18.893Z,0.80
2023-01-04T22:28:46.026Z,0.70
2023-01-04T22:31:14.343Z,0.80
2023-01-04T22:33:42.644Z,0.60
2023-01-04T22:36:21.152Z,0.70
2023-01-04T22:38:54.714Z,1.07
2023-01-04T22:41:24.794Z,0.60
2023-01-04T22:44:04.037Z,0.60
2023-01-04T22:46:34.513Z,0.60
2023-01-04T22:49:03.003Z,0.50
2023-01-04T22:51:31.197Z,0.77
2023-01-04T22:54:01.736Z,0.60
2023-01-04T22:56:29.496Z,0.80
2023-01-04T22:58:58.573Z,0.70
2023-01-04T23:01:33.150Z,1.00
2023-01-04T23:04:02.525Z,0.73
2023-01-04T23:06:31.937Z,0.70
2023-01-04T23:09:08.023Z,0.60
2023-01-04T23:11:36.827Z,0.70
2023-01-04T23:14:07.076Z,1.10
2023-01-04T23:16:34.898Z,0.80
2023-01-04T23:19:03.939Z,0.80
2023-01-04T23:21:33.157Z,0.80
2023-01-04T23:24:01.245Z,0.83
2023-01-04T23:26:31.295Z,0.70
2023-01-04T23:28:59.213Z,1.57
2023-01-04T23:31:31.088Z,0.70
2023-01-04T23:34:02.390Z,0.80
2023-01-04T23:36:33.889Z,0.70
2023-01-04T23:39:04.668Z,0.80
2023-01-04T23:41:47.650Z,0.90
2023-01-04T23:44:24.652Z,0.80
2023-01-04T23:47:14.233Z,0.83
2023-01-04T23:49:41.184Z,0.73
2023-01-04T23:52:08.589Z,1.07
2023-01-04T23:54:35.722Z,0.50
2023-01-04T23:57:03.934Z,0.60
2023-01-04T23:59:32.184Z,0.70
